Arcanum, Ohio
Current Conditions -  °F | °C
As of 12:35 PM on Sunday 23 Nov 2014 (Local Time) from KVES Reporting Station
Scattered Clouds Scattered Clouds  
Wind Chill: 57°   Ceiling: Unl
Heat Index: 57°   Visibility: 10mi
Dew Point: 46°   Wind: 13mph
Humidity: 67%   Direction: 160°SSE
Pressure: 29.79"   Gusts: NA
Location:  39.99°N, 84.55°W
Report Text: KVES 231735Z AUTO 16011KT 10SM SCT031 14/08 A2979 RMK AO2
Loading
Personal Weather Stations






























Interactive Weather Map New forecast layout! Learn more

10-Day Weather Forecast

Advertisements
Track Severe Weather on mobile